sensor_id;sensor_type;location;lat;lon;timestamp;P1;durP1;ratioP1;P2;durP2;ratioP2
60078;SDS011;45951;45.824;8.824;2023-07-20T00:00:48;8.68;;;6.38;;
60078;SDS011;45951;45.824;8.824;2023-07-20T00:02:33;9.27;;;7.15;;
60078;SDS011;45951;45.824;8.824;2023-07-20T00:04:13;8.35;;;6.40;;
60078;SDS011;45951;45.824;8.824;2023-07-20T00:05:54;9.07;;;6.38;;
60078;SDS011;45951;45.824;8.824;2023-07-20T00:07:34;9.93;;;6.63;;
60078;SDS011;45951;45.824;8.824;2023-07-20T00:09:15;9.80;;;6.47;;
60078;SDS011;45951;45.824;8.824;2023-07-20T00:10:55;10.30;;;7.10;;
60078;SDS011;45951;45.824;8.824;2023-07-20T00:12:35;9.57;;;6.60;;
60078;SDS011;45951;45.824;8.824;2023-07-20T00:14:16;8.35;;;7.30;;
60078;SDS011;45951;45.824;8.824;2023-07-20T00:15:56;10.23;;;7.03;;
60078;SDS011;45951;45.824;8.824;2023-07-20T00:17:37;9.32;;;6.65;;
60078;SDS011;45951;45.824;8.824;2023-07-20T00:19:20;10.43;;;6.43;;
60078;SDS011;45951;45.824;8.824;2023-07-20T00:21:00;10.10;;;6.78;;
60078;SDS011;45951;45.824;8.824;2023-07-20T00:22:41;8.68;;;6.70;;
60078;SDS011;45951;45.824;8.824;2023-07-20T00:24:22;10.65;;;7.18;;
60078;SDS011;45951;45.824;8.824;2023-07-20T00:26:03;9.82;;;7.28;;
60078;SDS011;45951;45.824;8.824;2023-07-20T00:27:43;9.93;;;7.03;;
60078;SDS011;45951;45.824;8.824;2023-07-20T00:29:24;10.63;;;7.00;;
60078;SDS011;45951;45.824;8.824;2023-07-20T00:31:04;10.40;;;7.43;;
60078;SDS011;45951;45.824;8.824;2023-07-20T00:32:45;10.02;;;7.03;;
60078;SDS011;45951;45.824;8.824;2023-07-20T00:34:25;8.73;;;7.20;;
60078;SDS011;45951;45.824;8.824;2023-07-20T00:36:05;10.48;;;7.53;;
60078;SDS011;45951;45.824;8.824;2023-07-20T00:37:46;9.35;;;7.03;;
60078;SDS011;45951;45.824;8.824;2023-07-20T00:39:26;10.10;;;7.35;;
60078;SDS011;45951;45.824;8.824;2023-07-20T00:41:06;10.35;;;7.13;;
60078;SDS011;45951;45.824;8.824;2023-07-20T00:42:47;10.77;;;7.07;;
60078;SDS011;45951;45.824;8.824;2023-07-20T00:44:27;10.10;;;7.47;;
60078;SDS011;45951;45.824;8.824;2023-07-20T00:46:07;10.43;;;6.85;;
60078;SDS011;45951;45.824;8.824;2023-07-20T00:47:48;10.70;;;7.65;;
60078;SDS011;45951;45.824;8.824;2023-07-20T00:49:29;9.85;;;7.55;;
60078;SDS011;45951;45.824;8.824;2023-07-20T00:51:09;10.55;;;7.28;;
60078;SDS011;45951;45.824;8.824;2023-07-20T00:52:50;11.00;;;7.20;;
60078;SDS011;45951;45.824;8.824;2023-07-20T00:54:30;11.10;;;7.63;;
60078;SDS011;45951;45.824;8.824;2023-07-20T00:56:11;11.27;;;8.35;;
60078;SDS011;45951;45.824;8.824;2023-07-20T00:57:51;11.57;;;7.70;;
60078;SDS011;45951;45.824;8.824;2023-07-20T00:59:32;10.80;;;7.68;;
60078;SDS011;45951;45.824;8.824;2023-07-20T01:01:14;10.40;;;7.65;;
60078;SDS011;45951;45.824;8.824;2023-07-20T01:02:54;10.20;;;7.53;;
60078;SDS011;45951;45.824;8.824;2023-07-20T01:04:34;10.85;;;7.65;;
60078;SDS011;45951;45.824;8.824;2023-07-20T01:06:24;12.00;;;7.93;;
60078;SDS011;45951;45.824;8.824;2023-07-20T01:08:17;11.43;;;8.15;;
60078;SDS011;45951;45.824;8.824;2023-07-20T01:10:25;10.60;;;7.68;;
60078;SDS011;45951;45.824;8.824;2023-07-20T01:13:58;14.80;;;8.02;;
60078;SDS011;45951;45.824;8.824;2023-07-20T01:15:39;11.48;;;8.40;;
60078;SDS011;45951;45.824;8.824;2023-07-20T01:17:20;10.05;;;7.70;;
60078;SDS011;45951;45.824;8.824;2023-07-20T01:19:00;12.52;;;8.00;;
60078;SDS011;45951;45.824;8.824;2023-07-20T01:20:40;13.02;;;8.02;;
60078;SDS011;45951;45.824;8.824;2023-07-20T01:22:27;13.25;;;7.63;;
60078;SDS011;45951;45.824;8.824;2023-07-20T01:28:22;11.30;;;7.38;;
60078;SDS011;45951;45.824;8.824;2023-07-20T01:32:11;11.63;;;9.05;;
60078;SDS011;45951;45.824;8.824;2023-07-20T01:33:52;9.90;;;7.50;;
60078;SDS011;45951;45.824;8.824;2023-07-20T01:35:34;11.13;;;7.40;;
60078;SDS011;45951;45.824;8.824;2023-07-20T01:37:16;14.18;;;7.93;;
60078;SDS011;45951;45.824;8.824;2023-07-20T01:38:57;14.85;;;8.30;;
60078;SDS011;45951;45.824;8.824;2023-07-20T01:40:38;13.82;;;8.38;;
60078;SDS011;45951;45.824;8.824;2023-07-20T01:42:18;12.50;;;7.85;;
60078;SDS011;45951;45.824;8.824;2023-07-20T01:43:59;10.60;;;7.75;;
60078;SDS011;45951;45.824;8.824;2023-07-20T01:45:39;12.50;;;7.88;;
60078;SDS011;45951;45.824;8.824;2023-07-20T01:47:20;11.13;;;8.50;;
60078;SDS011;45951;45.824;8.824;2023-07-20T01:49:00;10.75;;;7.50;;
60078;SDS011;45951;45.824;8.824;2023-07-20T01:50:40;12.57;;;8.80;;
60078;SDS011;45951;45.824;8.824;2023-07-20T01:52:21;12.73;;;8.20;;
60078;SDS011;45951;45.824;8.824;2023-07-20T01:54:01;12.95;;;8.05;;
60078;SDS011;45951;45.824;8.824;2023-07-20T01:55:41;11.82;;;7.28;;
60078;SDS011;45951;45.824;8.824;2023-07-20T01:57:21;10.43;;;7.68;;
60078;SDS011;45951;45.824;8.824;2023-07-20T01:59:05;12.25;;;7.68;;
60078;SDS011;45951;45.824;8.824;2023-07-20T02:00:45;12.55;;;7.68;;
60078;SDS011;45951;45.824;8.824;2023-07-20T02:02:26;10.27;;;7.72;;
60078;SDS011;45951;45.824;8.824;2023-07-20T02:04:07;11.60;;;7.20;;
60078;SDS011;45951;45.824;8.824;2023-07-20T02:05:48;11.07;;;7.55;;
60078;SDS011;45951;45.824;8.824;2023-07-20T02:07:28;15.60;;;7.47;;
60078;SDS011;45951;45.824;8.824;2023-07-20T02:09:08;11.50;;;7.40;;
60078;SDS011;45951;45.824;8.824;2023-07-20T02:10:49;11.73;;;7.28;;
60078;SDS011;45951;45.824;8.824;2023-07-20T02:12:29;12.77;;;7.45;;
60078;SDS011;45951;45.824;8.824;2023-07-20T02:14:09;10.68;;;7.05;;
60078;SDS011;45951;45.824;8.824;2023-07-20T02:15:49;11.40;;;7.20;;
60078;SDS011;45951;45.824;8.824;2023-07-20T02:17:31;13.68;;;7.60;;
60078;SDS011;45951;45.824;8.824;2023-07-20T02:19:14;11.57;;;7.28;;
60078;SDS011;45951;45.824;8.824;2023-07-20T02:20:54;15.00;;;7.53;;
60078;SDS011;45951;45.824;8.824;2023-07-20T02:22:34;9.05;;;6.57;;
60078;SDS011;45951;45.824;8.824;2023-07-20T02:24:14;12.38;;;7.13;;
60078;SDS011;45951;45.824;8.824;2023-07-20T02:25:57;11.65;;;7.05;;
60078;SDS011;45951;45.824;8.824;2023-07-20T02:27:37;9.30;;;6.75;;
60078;SDS011;45951;45.824;8.824;2023-07-20T02:29:18;10.43;;;7.57;;
60078;SDS011;45951;45.824;8.824;2023-07-20T02:30:59;12.23;;;6.90;;
60078;SDS011;45951;45.824;8.824;2023-07-20T02:32:40;10.10;;;7.43;;
60078;SDS011;45951;45.824;8.824;2023-07-20T02:34:20;9.25;;;6.93;;
60078;SDS011;45951;45.824;8.824;2023-07-20T02:36:01;9.45;;;6.68;;
60078;SDS011;45951;45.824;8.824;2023-07-20T02:37:41;12.38;;;7.30;;
60078;SDS011;45951;45.824;8.824;2023-07-20T02:39:22;11.13;;;6.82;;
60078;SDS011;45951;45.824;8.824;2023-07-20T02:41:02;13.45;;;7.13;;
60078;SDS011;45951;45.824;8.824;2023-07-20T02:42:42;10.93;;;6.88;;
60078;SDS011;45951;45.824;8.824;2023-07-20T02:44:23;11.82;;;7.35;;
60078;SDS011;45951;45.824;8.824;2023-07-20T02:46:03;10.20;;;7.55;;
60078;SDS011;45951;45.824;8.824;2023-07-20T02:47:44;11.30;;;7.50;;
60078;SDS011;45951;45.824;8.824;2023-07-20T02:49:24;11.60;;;6.82;;
60078;SDS011;45951;45.824;8.824;2023-07-20T02:51:04;12.05;;;6.80;;
60078;SDS011;45951;45.824;8.824;2023-07-20T02:52:45;10.88;;;7.05;;
60078;SDS011;45951;45.824;8.824;2023-07-20T02:54:25;9.77;;;6.90;;
60078;SDS011;45951;45.824;8.824;2023-07-20T02:56:05;12.23;;;7.03;;
60078;SDS011;45951;45.824;8.824;2023-07-20T02:57:49;12.02;;;7.00;;
60078;SDS011;45951;45.824;8.824;2023-07-20T02:59:30;13.38;;;6.88;;
60078;SDS011;45951;45.824;8.824;2023-07-20T03:01:10;10.88;;;6.80;;
60078;SDS011;45951;45.824;8.824;2023-07-20T03:02:52;12.80;;;7.35;;
60078;SDS011;45951;45.824;8.824;2023-07-20T03:04:35;10.48;;;7.25;;
60078;SDS011;45951;45.824;8.824;2023-07-20T03:06:17;11.57;;;7.63;;
60078;SDS011;45951;45.824;8.824;2023-07-20T03:07:57;10.57;;;6.75;;
60078;SDS011;45951;45.824;8.824;2023-07-20T03:09:39;13.45;;;7.38;;
60078;SDS011;45951;45.824;8.824;2023-07-20T03:11:20;10.95;;;7.35;;
60078;SDS011;45951;45.824;8.824;2023-07-20T03:13:00;12.30;;;7.03;;
60078;SDS011;45951;45.824;8.824;2023-07-20T03:14:40;10.55;;;6.97;;
60078;SDS011;45951;45.824;8.824;2023-07-20T03:16:21;13.98;;;6.93;;
60078;SDS011;45951;45.824;8.824;2023-07-20T03:18:03;11.80;;;7.25;;
60078;SDS011;45951;45.824;8.824;2023-07-20T03:19:44;9.95;;;6.60;;
60078;SDS011;45951;45.824;8.824;2023-07-20T03:21:24;11.13;;;6.88;;
60078;SDS011;45951;45.824;8.824;2023-07-20T03:23:04;10.10;;;6.82;;
60078;SDS011;45951;45.824;8.824;2023-07-20T03:24:45;10.40;;;6.68;;
60078;SDS011;45951;45.824;8.824;2023-07-20T03:26:25;11.05;;;7.25;;
60078;SDS011;45951;45.824;8.824;2023-07-20T03:28:05;13.10;;;6.68;;
60078;SDS011;45951;45.824;8.824;2023-07-20T03:29:46;12.18;;;7.22;;
60078;SDS011;45951;45.824;8.824;2023-07-20T03:31:26;10.45;;;6.57;;
60078;SDS011;45951;45.824;8.824;2023-07-20T03:33:07;11.55;;;7.57;;
60078;SDS011;45951;45.824;8.824;2023-07-20T03:34:47;11.38;;;6.78;;
60078;SDS011;45951;45.824;8.824;2023-07-20T03:36:27;12.25;;;7.45;;
60078;SDS011;45951;45.824;8.824;2023-07-20T03:38:08;10.32;;;6.82;;
60078;SDS011;45951;45.824;8.824;2023-07-20T03:39:48;10.57;;;6.80;;
60078;SDS011;45951;45.824;8.824;2023-07-20T03:41:28;10.73;;;6.95;;
60078;SDS011;45951;45.824;8.824;2023-07-20T03:43:09;11.43;;;6.68;;
60078;SDS011;45951;45.824;8.824;2023-07-20T03:44:49;12.02;;;7.22;;
60078;SDS011;45951;45.824;8.824;2023-07-20T03:46:30;13.30;;;7.05;;
60078;SDS011;45951;45.824;8.824;2023-07-20T03:48:11;9.27;;;6.72;;
60078;SDS011;45951;45.824;8.824;2023-07-20T03:49:52;9.90;;;6.65;;
60078;SDS011;45951;45.824;8.824;2023-07-20T03:51:32;10.32;;;6.55;;
60078;SDS011;45951;45.824;8.824;2023-07-20T03:53:12;10.75;;;7.35;;
60078;SDS011;45951;45.824;8.824;2023-07-20T03:54:54;7.88;;;6.43;;
60078;SDS011;45951;45.824;8.824;2023-07-20T03:56:34;9.77;;;6.40;;
60078;SDS011;45951;45.824;8.824;2023-07-20T03:58:15;10.90;;;6.85;;
60078;SDS011;45951;45.824;8.824;2023-07-20T03:59:56;10.98;;;6.78;;
60078;SDS011;45951;45.824;8.824;2023-07-20T04:01:37;13.48;;;6.88;;
60078;SDS011;45951;45.824;8.824;2023-07-20T04:03:20;10.10;;;7.13;;
60078;SDS011;45951;45.824;8.824;2023-07-20T04:05:00;10.80;;;7.28;;
60078;SDS011;45951;45.824;8.824;2023-07-20T04:06:40;12.40;;;7.40;;
60078;SDS011;45951;45.824;8.824;2023-07-20T04:08:22;11.43;;;6.72;;
60078;SDS011;45951;45.824;8.824;2023-07-20T04:10:04;11.30;;;7.05;;
60078;SDS011;45951;45.824;8.824;2023-07-20T04:11:44;9.25;;;6.63;;
60078;SDS011;45951;45.824;8.824;2023-07-20T04:13:24;9.77;;;6.82;;
60078;SDS011;45951;45.824;8.824;2023-07-20T04:15:05;9.48;;;6.68;;
60078;SDS011;45951;45.824;8.824;2023-07-20T04:16:46;13.52;;;7.93;;
60078;SDS011;45951;45.824;8.824;2023-07-20T04:18:27;10.57;;;6.97;;
60078;SDS011;45951;45.824;8.824;2023-07-20T04:20:07;12.55;;;7.10;;
60078;SDS011;45951;45.824;8.824;2023-07-20T04:21:48;10.13;;;6.95;;
60078;SDS011;45951;45.824;8.824;2023-07-20T04:23:28;11.00;;;7.00;;
60078;SDS011;45951;45.824;8.824;2023-07-20T04:25:09;14.25;;;7.15;;
60078;SDS011;45951;45.824;8.824;2023-07-20T04:26:49;9.77;;;6.43;;
60078;SDS011;45951;45.824;8.824;2023-07-20T04:28:30;11.32;;;6.97;;
60078;SDS011;45951;45.824;8.824;2023-07-20T04:30:11;11.55;;;7.40;;
60078;SDS011;45951;45.824;8.824;2023-07-20T04:31:52;12.00;;;8.23;;
60078;SDS011;45951;45.824;8.824;2023-07-20T04:33:32;10.93;;;7.68;;
60078;SDS011;45951;45.824;8.824;2023-07-20T04:35:17;9.25;;;7.50;;
60078;SDS011;45951;45.824;8.824;2023-07-20T04:37:18;11.35;;;7.10;;
60078;SDS011;45951;45.824;8.824;2023-07-20T04:38:58;11.75;;;7.40;;
60078;SDS011;45951;45.824;8.824;2023-07-20T04:40:39;10.05;;;6.90;;
60078;SDS011;45951;45.824;8.824;2023-07-20T04:42:19;10.15;;;6.95;;
60078;SDS011;45951;45.824;8.824;2023-07-20T04:44:00;11.07;;;7.05;;
60078;SDS011;45951;45.824;8.824;2023-07-20T04:45:40;12.88;;;7.70;;
60078;SDS011;45951;45.824;8.824;2023-07-20T04:47:20;11.07;;;7.85;;
60078;SDS011;45951;45.824;8.824;2023-07-20T04:49:01;12.65;;;7.70;;
60078;SDS011;45951;45.824;8.824;2023-07-20T04:50:42;11.27;;;7.28;;
60078;SDS011;45951;45.824;8.824;2023-07-20T04:52:23;10.30;;;7.43;;
60078;SDS011;45951;45.824;8.824;2023-07-20T04:54:04;12.52;;;7.47;;
60078;SDS011;45951;45.824;8.824;2023-07-20T04:55:47;10.48;;;7.03;;
60078;SDS011;45951;45.824;8.824;2023-07-20T04:57:30;12.05;;;7.10;;
60078;SDS011;45951;45.824;8.824;2023-07-20T04:59:11;11.00;;;7.40;;
60078;SDS011;45951;45.824;8.824;2023-07-20T05:00:51;10.93;;;7.47;;
60078;SDS011;45951;45.824;8.824;2023-07-20T05:02:32;14.13;;;7.10;;
60078;SDS011;45951;45.824;8.824;2023-07-20T05:04:12;10.77;;;6.75;;
60078;SDS011;45951;45.824;8.824;2023-07-20T05:05:52;12.55;;;7.55;;
60078;SDS011;45951;45.824;8.824;2023-07-20T05:07:33;10.45;;;7.13;;
60078;SDS011;45951;45.824;8.824;2023-07-20T05:09:13;9.13;;;7.10;;
60078;SDS011;45951;45.824;8.824;2023-07-20T05:10:53;11.10;;;6.97;;
60078;SDS011;45951;45.824;8.824;2023-07-20T05:12:34;10.20;;;6.40;;
60078;SDS011;45951;45.824;8.824;2023-07-20T05:14:14;9.63;;;6.90;;
60078;SDS011;45951;45.824;8.824;2023-07-20T05:15:54;11.80;;;6.38;;
60078;SDS011;45951;45.824;8.824;2023-07-20T05:17:34;9.77;;;7.07;;
60078;SDS011;45951;45.824;8.824;2023-07-20T05:19:15;10.05;;;7.35;;
60078;SDS011;45951;45.824;8.824;2023-07-20T05:20:55;11.35;;;7.28;;
60078;SDS011;45951;45.824;8.824;2023-07-20T05:22:36;9.30;;;6.82;;
60078;SDS011;45951;45.824;8.824;2023-07-20T05:24:19;10.32;;;6.82;;
60078;SDS011;45951;45.824;8.824;2023-07-20T05:25:59;11.88;;;7.32;;
60078;SDS011;45951;45.824;8.824;2023-07-20T05:27:40;12.75;;;7.53;;
60078;SDS011;45951;45.824;8.824;2023-07-20T05:29:20;11.77;;;6.90;;
60078;SDS011;45951;45.824;8.824;2023-07-20T05:31:02;9.52;;;6.88;;
60078;SDS011;45951;45.824;8.824;2023-07-20T05:32:43;10.00;;;6.15;;
60078;SDS011;45951;45.824;8.824;2023-07-20T05:34:25;9.57;;;6.13;;
60078;SDS011;45951;45.824;8.824;2023-07-20T05:36:05;9.35;;;6.15;;
60078;SDS011;45951;45.824;8.824;2023-07-20T05:37:45;9.90;;;6.57;;
60078;SDS011;45951;45.824;8.824;2023-07-20T05:39:26;10.13;;;6.85;;
60078;SDS011;45951;45.824;8.824;2023-07-20T05:41:06;9.60;;;6.38;;
60078;SDS011;45951;45.824;8.824;2023-07-20T05:42:50;10.27;;;7.07;;
60078;SDS011;45951;45.824;8.824;2023-07-20T05:44:32;10.30;;;6.57;;
60078;SDS011;45951;45.824;8.824;2023-07-20T05:46:12;9.52;;;6.63;;
60078;SDS011;45951;45.824;8.824;2023-07-20T05:47:52;10.40;;;6.97;;
60078;SDS011;45951;45.824;8.824;2023-07-20T05:49:33;9.25;;;6.60;;
60078;SDS011;45951;45.824;8.824;2023-07-20T05:51:14;8.15;;;6.25;;
60078;SDS011;45951;45.824;8.824;2023-07-20T05:52:55;9.25;;;6.07;;
60078;SDS011;45951;45.824;8.824;2023-07-20T05:54:35;10.88;;;6.85;;
60078;SDS011;45951;45.824;8.824;2023-07-20T05:56:16;9.25;;;6.47;;
60078;SDS011;45951;45.824;8.824;2023-07-20T05:57:56;12.77;;;6.60;;
60078;SDS011;45951;45.824;8.824;2023-07-20T05:59:37;10.35;;;6.50;;
60078;SDS011;45951;45.824;8.824;2023-07-20T06:01:18;8.85;;;5.78;;
60078;SDS011;45951;45.824;8.824;2023-07-20T06:02:59;10.70;;;6.07;;
60078;SDS011;45951;45.824;8.824;2023-07-20T06:04:39;8.90;;;6.20;;
60078;SDS011;45951;45.824;8.824;2023-07-20T06:06:20;9.82;;;6.18;;
60078;SDS011;45951;45.824;8.824;2023-07-20T06:08:00;8.43;;;5.95;;
60078;SDS011;45951;45.824;8.824;2023-07-20T06:09:41;9.40;;;6.15;;
60078;SDS011;45951;45.824;8.824;2023-07-20T06:11:21;8.82;;;5.45;;
60078;SDS011;45951;45.824;8.824;2023-07-20T06:13:01;9.18;;;5.80;;
60078;SDS011;45951;45.824;8.824;2023-07-20T06:14:42;8.85;;;6.75;;
60078;SDS011;45951;45.824;8.824;2023-07-20T06:16:22;10.15;;;5.80;;
60078;SDS011;45951;45.824;8.824;2023-07-20T06:18:02;8.50;;;5.53;;
60078;SDS011;45951;45.824;8.824;2023-07-20T06:19:43;8.82;;;6.20;;
60078;SDS011;45951;45.824;8.824;2023-07-20T06:21:24;7.70;;;5.40;;
60078;SDS011;45951;45.824;8.824;2023-07-20T06:23:04;7.80;;;5.88;;
60078;SDS011;45951;45.824;8.824;2023-07-20T06:24:45;7.03;;;5.78;;
60078;SDS011;45951;45.824;8.824;2023-07-20T06:26:25;7.50;;;5.90;;
60078;SDS011;45951;45.824;8.824;2023-07-20T06:28:05;7.05;;;5.57;;
60078;SDS011;45951;45.824;8.824;2023-07-20T06:29:46;8.38;;;6.40;;
60078;SDS011;45951;45.824;8.824;2023-07-20T06:31:26;8.48;;;6.43;;
60078;SDS011;45951;45.824;8.824;2023-07-20T06:33:06;9.15;;;6.20;;
60078;SDS011;45951;45.824;8.824;2023-07-20T06:34:47;7.53;;;6.03;;
60078;SDS011;45951;45.824;8.824;2023-07-20T06:36:27;8.85;;;6.18;;
60078;SDS011;45951;45.824;8.824;2023-07-20T06:38:08;8.70;;;6.30;;
60078;SDS011;45951;45.824;8.824;2023-07-20T06:39:48;9.43;;;5.50;;
60078;SDS011;45951;45.824;8.824;2023-07-20T06:41:28;7.00;;;5.65;;
60078;SDS011;45951;45.824;8.824;2023-07-20T06:43:09;7.65;;;5.25;;
60078;SDS011;45951;45.824;8.824;2023-07-20T06:44:49;9.30;;;5.50;;
60078;SDS011;45951;45.824;8.824;2023-07-20T06:46:29;6.70;;;5.28;;
60078;SDS011;45951;45.824;8.824;2023-07-20T06:48:10;7.90;;;5.57;;
60078;SDS011;45951;45.824;8.824;2023-07-20T06:49:50;7.13;;;5.40;;
60078;SDS011;45951;45.824;8.824;2023-07-20T06:51:31;6.45;;;5.30;;
60078;SDS011;45951;45.824;8.824;2023-07-20T06:53:11;7.45;;;5.88;;
60078;SDS011;45951;45.824;8.824;2023-07-20T06:54:51;6.95;;;5.60;;
60078;SDS011;45951;45.824;8.824;2023-07-20T06:56:32;7.28;;;5.45;;
60078;SDS011;45951;45.824;8.824;2023-07-20T06:58:12;6.47;;;4.88;;
60078;SDS011;45951;45.824;8.824;2023-07-20T06:59:52;7.63;;;5.30;;
60078;SDS011;45951;45.824;8.824;2023-07-20T07:01:33;7.00;;;5.82;;
60078;SDS011;45951;45.824;8.824;2023-07-20T07:03:13;7.88;;;5.22;;
60078;SDS011;45951;45.824;8.824;2023-07-20T07:04:54;7.32;;;5.43;;
60078;SDS011;45951;45.824;8.824;2023-07-20T07:06:35;6.43;;;5.03;;
60078;SDS011;45951;45.824;8.824;2023-07-20T07:08:17;6.10;;;5.10;;
60078;SDS011;45951;45.824;8.824;2023-07-20T07:09:57;7.15;;;5.35;;
60078;SDS011;45951;45.824;8.824;2023-07-20T07:11:38;9.68;;;5.60;;
60078;SDS011;45951;45.824;8.824;2023-07-20T07:13:18;7.63;;;5.80;;
60078;SDS011;45951;45.824;8.824;2023-07-20T07:14:59;6.57;;;5.43;;
60078;SDS011;45951;45.824;8.824;2023-07-20T07:16:40;6.85;;;5.43;;
60078;SDS011;45951;45.824;8.824;2023-07-20T07:18:20;6.50;;;5.30;;
60078;SDS011;45951;45.824;8.824;2023-07-20T07:20:00;9.80;;;5.40;;
60078;SDS011;45951;45.824;8.824;2023-07-20T07:21:41;7.30;;;5.60;;
60078;SDS011;45951;45.824;8.824;2023-07-20T07:23:21;6.40;;;5.50;;
60078;SDS011;45951;45.824;8.824;2023-07-20T07:25:01;7.05;;;5.50;;
60078;SDS011;45951;45.824;8.824;2023-07-20T07:26:43;7.40;;;5.53;;
60078;SDS011;45951;45.824;8.824;2023-07-20T07:28:23;7.93;;;5.60;;
60078;SDS011;45951;45.824;8.824;2023-07-20T07:30:04;6.90;;;5.75;;
60078;SDS011;45951;45.824;8.824;2023-07-20T07:31:45;6.20;;;5.03;;
60078;SDS011;45951;45.824;8.824;2023-07-20T07:33:25;6.45;;;5.40;;
60078;SDS011;45951;45.824;8.824;2023-07-20T07:35:05;6.10;;;5.25;;
60078;SDS011;45951;45.824;8.824;2023-07-20T07:36:46;6.82;;;5.30;;
60078;SDS011;45951;45.824;8.824;2023-07-20T07:38:27;7.45;;;5.30;;
60078;SDS011;45951;45.824;8.824;2023-07-20T07:40:07;5.93;;;4.82;;
60078;SDS011;45951;45.824;8.824;2023-07-20T07:41:48;6.35;;;5.50;;
60078;SDS011;45951;45.824;8.824;2023-07-20T07:43:28;7.05;;;5.35;;
60078;SDS011;45951;45.824;8.824;2023-07-20T07:45:09;6.43;;;4.93;;
60078;SDS011;45951;45.824;8.824;2023-07-20T07:46:49;6.20;;;5.32;;
60078;SDS011;45951;45.824;8.824;2023-07-20T07:48:30;8.20;;;5.30;;
60078;SDS011;45951;45.824;8.824;2023-07-20T07:50:10;6.10;;;5.40;;
60078;SDS011;45951;45.824;8.824;2023-07-20T07:51:51;5.90;;;5.05;;
60078;SDS011;45951;45.824;8.824;2023-07-20T07:53:31;5.68;;;4.88;;
60078;SDS011;45951;45.824;8.824;2023-07-20T07:55:12;7.20;;;5.15;;
60078;SDS011;45951;45.824;8.824;2023-07-20T07:56:53;7.05;;;5.10;;
60078;SDS011;45951;45.824;8.824;2023-07-20T07:58:33;6.45;;;5.03;;
60078;SDS011;45951;45.824;8.824;2023-07-20T08:00:14;7.47;;;4.88;;
60078;SDS011;45951;45.824;8.824;2023-07-20T08:01:55;7.28;;;4.70;;
60078;SDS011;45951;45.824;8.824;2023-07-20T08:03:36;5.65;;;4.38;;
60078;SDS011;45951;45.824;8.824;2023-07-20T08:05:17;6.18;;;4.75;;
60078;SDS011;45951;45.824;8.824;2023-07-20T08:06:58;7.75;;;4.68;;
60078;SDS011;45951;45.824;8.824;2023-07-20T08:08:39;6.63;;;4.47;;
60078;SDS011;45951;45.824;8.824;2023-07-20T08:10:19;6.65;;;4.70;;
60078;SDS011;45951;45.824;8.824;2023-07-20T08:12:00;6.20;;;4.45;;
60078;SDS011;45951;45.824;8.824;2023-07-20T08:13:40;7.30;;;4.68;;
60078;SDS011;45951;45.824;8.824;2023-07-20T08:15:20;6.53;;;4.38;;
60078;SDS011;45951;45.824;8.824;2023-07-20T08:17:01;6.80;;;4.85;;
60078;SDS011;45951;45.824;8.824;2023-07-20T08:18:41;9.60;;;5.28;;
60078;SDS011;45951;45.824;8.824;2023-07-20T08:20:22;6.97;;;5.07;;
60078;SDS011;45951;45.824;8.824;2023-07-20T08:22:06;9.25;;;5.22;;
60078;SDS011;45951;45.824;8.824;2023-07-20T08:23:46;7.72;;;4.97;;
60078;SDS011;45951;45.824;8.824;2023-07-20T08:25:27;7.40;;;4.68;;
60078;SDS011;45951;45.824;8.824;2023-07-20T08:27:07;7.97;;;4.88;;
60078;SDS011;45951;45.824;8.824;2023-07-20T08:28:48;7.53;;;4.63;;
60078;SDS011;45951;45.824;8.824;2023-07-20T08:30:38;6.68;;;4.88;;
60078;SDS011;45951;45.824;8.824;2023-07-20T08:32:28;8.35;;;5.95;;
60078;SDS011;45951;45.824;8.824;2023-07-20T08:34:09;9.85;;;6.13;;
60078;SDS011;45951;45.824;8.824;2023-07-20T08:35:49;9.52;;;6.43;;
60078;SDS011;45951;45.824;8.824;2023-07-20T08:37:29;10.55;;;6.47;;
60078;SDS011;45951;45.824;8.824;2023-07-20T08:39:09;9.55;;;5.85;;
60078;SDS011;45951;45.824;8.824;2023-07-20T08:40:51;11.88;;;6.05;;
60078;SDS011;45951;45.824;8.824;2023-07-20T08:42:31;9.32;;;6.07;;
60078;SDS011;45951;45.824;8.824;2023-07-20T08:44:11;10.65;;;6.03;;
60078;SDS011;45951;45.824;8.824;2023-07-20T08:45:54;11.95;;;6.13;;
60078;SDS011;45951;45.824;8.824;2023-07-20T08:47:35;11.90;;;6.05;;
60078;SDS011;45951;45.824;8.824;2023-07-20T08:49:16;9.95;;;6.32;;
60078;SDS011;45951;45.824;8.824;2023-07-20T08:50:58;9.32;;;6.20;;
60078;SDS011;45951;45.824;8.824;2023-07-20T08:52:40;9.48;;;5.70;;
60078;SDS011;45951;45.824;8.824;2023-07-20T08:54:20;8.55;;;5.88;;
60078;SDS011;45951;45.824;8.824;2023-07-20T08:56:00;10.48;;;5.85;;
60078;SDS011;45951;45.824;8.824;2023-07-20T08:57:41;9.55;;;6.25;;
60078;SDS011;45951;45.824;8.824;2023-07-20T08:59:24;10.65;;;6.30;;
60078;SDS011;45951;45.824;8.824;2023-07-20T09:01:04;8.32;;;6.57;;
60078;SDS011;45951;45.824;8.824;2023-07-20T09:02:45;9.35;;;5.88;;
60078;SDS011;45951;45.824;8.824;2023-07-20T09:04:25;10.55;;;5.57;;
60078;SDS011;45951;45.824;8.824;2023-07-20T09:06:06;10.40;;;6.05;;
60078;SDS011;45951;45.824;8.824;2023-07-20T09:07:46;11.10;;;6.15;;
60078;SDS011;45951;45.824;8.824;2023-07-20T09:09:26;8.68;;;5.75;;
60078;SDS011;45951;45.824;8.824;2023-07-20T09:11:07;9.48;;;5.63;;
60078;SDS011;45951;45.824;8.824;2023-07-20T09:12:48;10.07;;;6.32;;
60078;SDS011;45951;45.824;8.824;2023-07-20T09:14:29;11.10;;;5.70;;
60078;SDS011;45951;45.824;8.824;2023-07-20T09:16:13;10.90;;;5.93;;
60078;SDS011;45951;45.824;8.824;2023-07-20T09:17:54;11.60;;;6.22;;
60078;SDS011;45951;45.824;8.824;2023-07-20T09:19:35;10.38;;;6.05;;
60078;SDS011;45951;45.824;8.824;2023-07-20T09:21:15;10.43;;;6.32;;
60078;SDS011;45951;45.824;8.824;2023-07-20T09:22:57;8.60;;;5.68;;
60078;SDS011;45951;45.824;8.824;2023-07-20T09:24:37;9.13;;;6.30;;
60078;SDS011;45951;45.824;8.824;2023-07-20T09:26:18;11.65;;;5.90;;
60078;SDS011;45951;45.824;8.824;2023-07-20T09:28:01;8.77;;;5.80;;
60078;SDS011;45951;45.824;8.824;2023-07-20T09:29:51;9.18;;;5.90;;
60078;SDS011;45951;45.824;8.824;2023-07-20T09:31:32;9.00;;;6.03;;
60078;SDS011;45951;45.824;8.824;2023-07-20T09:33:19;8.20;;;5.63;;
60078;SDS011;45951;45.824;8.824;2023-07-20T09:35:01;8.02;;;5.90;;
60078;SDS011;45951;45.824;8.824;2023-07-20T09:36:41;7.47;;;6.03;;
60078;SDS011;45951;45.824;8.824;2023-07-20T09:38:22;9.77;;;5.78;;
60078;SDS011;45951;45.824;8.824;2023-07-20T09:40:03;10.73;;;5.65;;
60078;SDS011;45951;45.824;8.824;2023-07-20T09:41:47;9.15;;;5.32;;
60078;SDS011;45951;45.824;8.824;2023-07-20T09:43:28;8.65;;;6.00;;
60078;SDS011;45951;45.824;8.824;2023-07-20T09:45:10;7.00;;;5.35;;
60078;SDS011;45951;45.824;8.824;2023-07-20T09:46:51;8.90;;;6.03;;
60078;SDS011;45951;45.824;8.824;2023-07-20T09:48:33;7.25;;;5.43;;
60078;SDS011;45951;45.824;8.824;2023-07-20T09:50:13;8.80;;;5.22;;
60078;SDS011;45951;45.824;8.824;2023-07-20T09:51:54;7.63;;;5.47;;
60078;SDS011;45951;45.824;8.824;2023-07-20T09:53:35;10.63;;;5.43;;
60078;SDS011;45951;45.824;8.824;2023-07-20T09:55:16;11.55;;;6.15;;
60078;SDS011;45951;45.824;8.824;2023-07-20T09:56:56;8.07;;;5.63;;
60078;SDS011;45951;45.824;8.824;2023-07-20T09:58:36;7.65;;;5.30;;
60078;SDS011;45951;45.824;8.824;2023-07-20T10:00:17;8.23;;;5.38;;
60078;SDS011;45951;45.824;8.824;2023-07-20T10:01:58;8.43;;;5.40;;
60078;SDS011;45951;45.824;8.824;2023-07-20T10:03:40;7.68;;;5.38;;
60078;SDS011;45951;45.824;8.824;2023-07-20T10:05:22;8.13;;;5.60;;
60078;SDS011;45951;45.824;8.824;2023-07-20T10:07:05;9.35;;;5.80;;
60078;SDS011;45951;45.824;8.824;2023-07-20T10:08:49;11.05;;;6.15;;
60078;SDS011;45951;45.824;8.824;2023-07-20T10:10:33;7.45;;;5.10;;
60078;SDS011;45951;45.824;8.824;2023-07-20T10:12:14;8.55;;;5.50;;